createdAt,value
2022-11-09T00:03:40.911Z,99795.69
2022-11-09T00:13:45.802Z,99786.31
2022-11-09T00:23:49.785Z,99791.75
2022-11-09T00:33:57.169Z,99789.23
2022-11-09T00:44:00.513Z,99779.15
2022-11-09T00:54:08.391Z,99765.67
2022-11-09T01:04:11.724Z,99763.48
2022-11-09T01:14:15.051Z,99756.06
2022-11-09T01:24:18.587Z,99766.02
2022-11-09T01:34:23.211Z,99769.14
2022-11-09T01:44:28.162Z,99756.35
2022-11-09T01:54:46.057Z,99761.86
2022-11-09T02:04:59.215Z,99760.83
2022-11-09T02:15:05.837Z,99750.70
2022-11-09T02:25:15.497Z,99745.16
2022-11-09T02:35:19.023Z,99747.35
2022-11-09T02:45:23.541Z,99749.98
2022-11-09T02:55:30.967Z,99748.15
2022-11-09T03:05:35.222Z,99738.45
2022-11-09T03:15:38.792Z,99740.33
2022-11-09T03:25:44.743Z,99741.90
2022-11-09T03:35:48.506Z,99730.01
2022-11-09T03:45:54.157Z,99719.55
2022-11-09T03:56:00.090Z,99704.52
2022-11-09T04:06:03.840Z,99698.22
2022-11-09T04:16:08.803Z,99696.25
2022-11-09T04:26:12.170Z,99702.29
2022-11-09T04:36:17.843Z,99702.72
2022-11-09T04:46:22.801Z,99698.91
2022-11-09T04:56:27.796Z,99694.89
2022-11-09T05:06:35.975Z,99693.05
2022-11-09T05:16:39.222Z,99686.95
2022-11-09T05:26:42.984Z,99691.81
2022-11-09T05:36:47.593Z,99698.64
2022-11-09T05:46:52.593Z,99703.09
2022-11-09T05:56:55.799Z,99692.05
2022-11-09T06:06:59.369Z,99706.22
2022-11-09T06:17:02.676Z,99704.43
2022-11-09T06:27:07.416Z,99699.11
2022-11-09T06:37:10.787Z,99701.26
2022-11-09T06:47:14.046Z,99715.02
2022-11-09T06:57:17.294Z,99729.36
2022-11-09T07:07:23.660Z,99728.60
2022-11-09T07:17:35.013Z,99731.87
2022-11-09T07:27:38.407Z,99730.85
2022-11-09T07:37:42.045Z,99717.73
2022-11-09T07:47:45.204Z,99716.42
2022-11-09T07:57:48.486Z,99698.83
2022-11-09T08:08:03.408Z,99708.47
2022-11-09T08:18:15.731Z,99699.66
2022-11-09T08:28:19.409Z,99701.62
2022-11-09T08:38:23.720Z,99703.35
2022-11-09T08:48:28.588Z,99688.88
2022-11-09T08:58:31.790Z,99697.53
2022-11-09T09:08:36.310Z,99701.73
2022-11-09T09:18:39.602Z,99708.86
2022-11-09T09:28:43.147Z,99710.66
2022-11-09T09:38:46.359Z,99723.27
2022-11-09T09:49:09.613Z,99728.20
2022-11-09T09:59:33.396Z,99712.70
2022-11-09T10:09:46.044Z,99706.54
2022-11-09T10:20:19.089Z,99689.48
2022-11-09T10:30:26.458Z,99677.54
2022-11-09T10:40:42.950Z,99679.95
2022-11-09T10:51:05.373Z,99686.52
2022-11-09T11:01:37.219Z,99671.67
2022-11-09T11:12:22.892Z,99659.27
2022-11-09T11:22:47.743Z,99652.75
2022-11-09T11:33:16.263Z,99656.93
2022-11-09T11:44:10.920Z,99660.86
2022-11-09T11:55:28.683Z,99672.77
2022-11-09T12:06:17.786Z,99676.70
2022-11-09T12:17:13.417Z,99665.11
2022-11-09T12:27:47.082Z,99650.06
2022-11-09T12:38:53.023Z,99636.48
2022-11-09T12:49:32.709Z,99640.81
2022-11-09T12:59:58.494Z,99652.33
2022-11-09T13:10:34.582Z,99662.79
2022-11-09T13:21:23.325Z,99658.02
2022-11-09T13:32:13.442Z,99656.61
2022-11-09T13:42:36.912Z,99659.20
2022-11-09T13:53:04.342Z,99663.47
2022-11-09T14:03:29.809Z,99676.44
2022-11-09T14:14:29.376Z,99693.84
2022-11-09T14:24:51.570Z,99696.31
2022-11-09T14:35:25.657Z,99688.10
2022-11-09T14:46:02.188Z,99694.61
2022-11-09T14:56:24.987Z,99687.57
2022-11-09T15:06:52.193Z,99695.06
2022-11-09T15:17:36.813Z,99681.49
2022-11-09T15:28:14.422Z,99689.60
2022-11-09T15:38:39.376Z,99677.66
2022-11-09T15:49:17.801Z,99705.77
2022-11-09T15:59:39.870Z,99713.07
2022-11-09T16:10:01.711Z,99725.71
2022-11-09T16:20:23.626Z,99731.52
2022-11-09T16:30:47.001Z,99717.87
2022-11-09T16:41:11.152Z,99730.98
2022-11-09T16:51:33.324Z,99724.09
2022-11-09T17:01:59.790Z,99733.58
2022-11-09T17:12:21.673Z,99742.89
2022-11-09T17:22:46.234Z,99741.48
2022-11-09T17:33:08.347Z,99738.28
2022-11-09T17:43:32.451Z,99722.24
2022-11-09T17:53:54.832Z,99718.60
2022-11-09T18:04:16.885Z,99725.77
2022-11-09T18:14:39.009Z,99721.68
2022-11-09T18:25:01.055Z,99715.23
2022-11-09T18:35:23.147Z,99709.30
2022-11-09T18:45:54.527Z,99704.23
2022-11-09T18:56:23.604Z,99704.59
2022-11-09T19:06:46.781Z,99710.73
2022-11-09T19:17:14.830Z,99723.29
2022-11-09T19:27:37.200Z,99734.02
2022-11-09T19:38:05.134Z,99733.54
2022-11-09T19:48:29.264Z,99733.60
2022-11-09T19:58:54.762Z,99736.98
2022-11-09T20:09:17.031Z,99731.79
2022-11-09T20:19:39.638Z,99739.80
2022-11-09T20:30:02.157Z,99752.06
2022-11-09T20:40:24.061Z,99755.84
2022-11-09T20:50:46.725Z,99751.34
2022-11-09T21:01:25.318Z,99739.61
2022-11-09T21:12:06.223Z,99743.04
2022-11-09T21:22:48.566Z,99742.87
2022-11-09T21:33:10.527Z,99743.95
2022-11-09T21:43:32.663Z,99740.59
2022-11-09T21:53:54.644Z,99744.60
2022-11-09T22:04:16.919Z,99748.48
2022-11-09T22:14:57.483Z,99743.04
2022-11-09T22:25:19.499Z,99748.17
2022-11-09T22:35:41.381Z,99743.86
2022-11-09T22:46:16.051Z,99738.55
2022-11-09T22:56:37.815Z,99734.16
2022-11-09T23:06:59.885Z,99734.48
2022-11-09T23:17:40.282Z,99738.92
2022-11-09T23:28:02.570Z,99749.64
2022-11-09T23:38:28.121Z,99748.28
2022-11-09T23:48:52.292Z,99732.69
2022-11-09T23:59:15.557Z,99730.90
